Terminal Aerodrome Forecast
Issued by NWS Dodge City, KS

Home | Current Version | Previous Version | Text Only | Print | Product List | Glossary On
Versions: 1 2 3 4 5 6 7 8 9 10 11 12 13 14 15 16 17
000
FTUS43 KDDC 212336
TAFDDC
TAF
KDDC 212336Z 2200/2224 14007KT P6SM BKN050
      TEMPO 2201/2203 -TSRA BKN040CB
     FM221500 22007KT P6SM BKN015=

USA.gov is the U.S. government's official web portal to all federal, state and local government web resources and services.